首页
METAR-TAF:

METAR-TAF

机场 :

Hobbs, 新墨西哥州, 美国

纬度: 32-41N, 经度: 103-13W, 海拔: 1115米

当前天气观测

该预报发布于15分钟前的10:55 UTC
风速8节,风向南转南东
温度 23°C
湿度 69%
气压 1016 hPa
能見度: 16.1公里
天空无云

METAR: KHOB 251055Z AUTO 16008KT 10SM CLR 23/17 A2999 RMK AO2

时间: 05:10 (11:10 UTC)

预报

该预报发布于5小时和50分钟前的05:20 UTC
预报有效从25日的 06点(UTC)到 26日的 06点(UTC)
风速10节,风向南转南东
能見度: 10公里
天空无云

TAF: KHOB 250520Z 2506/2606 15010KT P6SM SKC

超过4000个机场的气象观测和天气预报(METAR&TAF报告)。

可查询的气象台以黄色和红色小点在地图上表示。

将鼠标移到小点上方,可查看气象台名称。

然后点击查看天气观测和预报。

如需切换地图:点击带黑十字的绿色按钮放大地图;点击带横线的绿色按钮缩小地图;或者点击绿色箭头查看邻近地区的地图。


METAR-TAF: